Time;durP1;ratioP1;P1;durP2;ratioP2;P2;SDS_P1;SDS_P2;PMS_P1;PMS_P2;Temp;Humidity;BMP_temperature;BMP_pressure;BME280_temperature;BME280_humidity;BME280_pressure;Samples;Min_cycle;Max_cycle;Signal;HPM_P1;HPM_P2
2021/07/21 00:01:59;;;;;;;8.45;7.20;;;;;;;30.40;51.67;100578.63;1614374;87;21058;-46
2021/07/21 00:04:27;;;;;;;10.10;7.22;;;;;;;30.37;51.92;100576.30;1613702;87;21089;-51
2021/07/21 00:06:55;;;;;;;7.60;6.80;;;;;;;30.34;52.19;100581.98;1615211;88;21101;-51
2021/07/21 00:09:22;;;;;;;8.03;7.12;;;;;;;30.30;52.54;100581.12;1614706;88;21034;-46
2021/07/21 00:14:35;;;;;;;8.58;6.60;;;;;;;30.25;53.31;100588.28;1617034;88;21010;-47
2021/07/21 00:17:07;;;;;;;7.80;7.00;;;;;;;30.20;53.78;100583.92;1616462;88;21082;-48
2021/07/21 00:22:18;;;;;;;8.65;6.72;;;;;;;30.16;54.46;100583.91;1611197;88;21030;-49
2021/07/21 00:24:45;;;;;;;7.67;6.95;;;;;;;30.16;54.64;100585.25;1615085;88;21098;-46
2021/07/21 00:27:12;;;;;;;7.30;6.70;;;;;;;30.16;54.85;100583.06;1616392;88;20998;-49
2021/07/21 00:29:39;;;;;;;8.58;7.60;;;;;;;30.15;54.80;100580.88;1611160;88;21070;-49
2021/07/21 00:32:07;;;;;;;8.40;7.22;;;;;;;30.15;54.75;100576.84;1614674;88;21014;-47
2021/07/21 00:34:35;;;;;;;8.03;7.33;;;;;;;30.14;54.70;100573.84;1614297;88;21062;-47
2021/07/21 00:37:03;;;;;;;10.28;7.83;;;;;;;30.14;54.68;100577.87;1615572;88;21045;-49
2021/07/21 00:39:31;;;;;;;10.23;7.47;;;;;;;30.14;54.69;100574.34;1617275;88;21490;-46
2021/07/21 00:42:00;;;;;;;8.20;7.30;;;;;;;30.12;54.69;100577.19;1617001;88;21074;-48
2021/07/21 00:44:27;;;;;;;10.25;7.75;;;;;;;30.12;54.58;100577.19;1615493;88;21090;-48
2021/07/21 00:46:56;;;;;;;8.58;7.60;;;;;;;30.11;54.58;100577.36;1615045;88;21054;-52
2021/07/21 00:49:25;;;;;;;8.73;7.83;;;;;;;30.09;54.49;100577.50;1616485;88;20998;-50
2021/07/21 00:51:53;;;;;;;10.25;8.63;;;;;;;30.07;54.42;100575.48;1612876;88;21014;-47
2021/07/21 00:54:21;;;;;;;7.80;7.10;;;;;;;30.06;54.23;100577.84;1618588;88;21531;-46
2021/07/21 00:56:49;;;;;;;8.45;7.15;;;;;;;30.05;54.08;100575.30;1613828;88;21034;-48
2021/07/21 00:59:18;;;;;;;11.22;7.72;;;;;;;30.02;53.92;100573.80;1614459;88;21510;-48
2021/07/21 01:01:45;;;;;;;8.38;7.17;;;;;;;29.98;53.80;100567.09;1614552;88;21026;-52
2021/07/21 01:04:12;;;;;;;9.15;7.70;;;;;;;29.95;53.61;100563.37;1614449;88;21577;-50
2021/07/21 01:06:39;;;;;;;9.68;8.65;;;;;;;29.94;53.31;100572.93;1615351;88;21077;-48
2021/07/21 01:09:09;;;;;;;8.93;8.03;;;;;;;29.91;53.06;100574.09;1603139;88;21093;-50
2021/07/21 01:12:35;;;;;;;12.00;7.58;;;;;;;29.87;52.94;100578.09;1617401;88;21026;-47
2021/07/21 01:15:09;;;;;;;10.28;7.45;;;;;;;29.84;52.82;100567.70;1604430;88;21526;-48
2021/07/21 01:17:56;;;;;;;9.10;8.20;;;;;;;29.81;52.72;100572.53;1613925;87;21030;-47
2021/07/21 01:20:34;;;;;;;12.25;8.80;;;;;;;29.76;52.73;100562.27;1604376;88;21013;-50
2021/07/21 01:23:42;;;;;;;8.90;7.97;;;;;;;29.71;52.83;100564.09;1614244;88;21530;-47
2021/07/21 01:26:25;;;;;;;10.00;8.43;;;;;;;29.68;52.86;100560.86;1605194;88;21054;-49
2021/07/21 01:28:53;;;;;;;9.88;8.80;;;;;;;29.64;53.02;100548.78;1503696;95;21141;-48
2021/07/21 01:31:36;;;;;;;14.53;8.78;;;;;;;29.61;52.97;100553.95;1520315;93;21029;-47
2021/07/21 01:34:04;;;;;;;11.57;8.05;;;;;;;29.58;53.07;100554.29;1495341;95;21050;-49
2021/07/21 01:36:41;;;;;;;9.25;8.03;;;;;;;29.58;53.03;100558.80;1518860;92;21072;-47
2021/07/21 01:39:12;;;;;;;12.07;9.20;;;;;;;29.55;53.13;100549.75;1502120;95;21157;-47
2021/07/21 01:41:49;;;;;;;;;;;;;;;29.55;53.22;100553.78;1527761;93;21137;-46
2021/07/21 01:44:20;;;;;;;8.23;7.37;;;;;;;29.53;53.25;100555.78;1520671;94;20121;-47
2021/07/21 01:46:50;;;;;;;8.70;7.63;;;;;;;29.49;53.43;100557.09;1520222;94;21523;-50
2021/07/21 01:49:17;;;;;;;8.70;7.90;;;;;;;29.49;53.53;100557.09;1520214;93;21500;-47
2021/07/21 01:51:45;;;;;;;9.58;7.42;;;;;;;29.48;53.53;100562.10;1518909;94;21184;-48
2021/07/21 01:54:12;;;;;;;8.78;7.95;;;;;;;29.46;53.43;100560.93;1517498;93;21155;-47
2021/07/21 01:56:45;;;;;;;9.38;7.60;;;;;;;29.45;53.28;100553.05;1493928;95;21116;-46
2021/07/21 01:59:13;;;;;;;12.68;9.20;;;;;;;29.44;52.96;100561.59;1521504;93;21542;-46
2021/07/21 02:01:41;;;;;;;8.80;7.90;;;;;;;29.43;52.59;100555.05;1501839;95;21138;-46
2021/07/21 02:04:09;;;;;;;10.00;7.75;;;;;;;29.42;52.37;100552.02;1501672;95;21116;-48
2021/07/21 02:06:36;;;;;;;7.92;7.12;;;;;;;29.39;52.28;100553.66;1503268;95;21157;-46
2021/07/21 02:09:06;;;;;;;9.80;7.75;;;;;;;29.37;52.12;100552.97;1503403;95;21621;-46
2021/07/21 02:11:33;;;;;;;9.55;7.90;;;;;;;29.35;52.09;100560.34;1501378;95;21164;-48
2021/07/21 02:14:02;;;;;;;8.23;7.42;;;;;;;29.32;51.99;100552.63;1502733;95;21110;-47
2021/07/21 02:16:32;;;;;;;10.05;8.60;;;;;;;29.29;51.89;100556.95;1474947;97;21077;-47
2021/07/21 02:18:59;;;;;;;8.68;7.87;;;;;;;29.25;51.91;100548.88;1481089;97;21148;-49
2021/07/21 02:21:28;;;;;;;9.35;8.38;;;;;;;29.24;52.01;100552.58;1484189;96;21087;-48
2021/07/21 02:23:56;;;;;;;9.50;8.58;;;;;;;29.20;52.18;100552.55;1466174;97;21138;-49
2021/07/21 02:26:40;;;;;;;10.90;8.05;;;;;;;29.18;52.39;100559.38;1502415;93;21084;-46
2021/07/21 02:29:08;;;;;;;10.48;8.68;;;;;;;29.17;52.71;100566.25;1516956;94;21679;-48
2021/07/21 02:32:01;;;;;;;12.23;8.90;;;;;;;29.14;53.10;100563.87;1519458;94;21025;-46
2021/07/21 02:34:28;;;;;;;10.03;8.10;;;;;;;29.12;53.40;100568.55;1484781;97;21606;-49
2021/07/21 02:36:57;;;;;;;10.00;9.00;;;;;;;29.09;53.72;100570.18;1484703;95;21083;-50
2021/07/21 02:39:24;;;;;;;8.65;7.85;;;;;;;29.06;54.01;100567.83;1472747;96;21109;-46
2021/07/21 02:41:53;;;;;;;9.25;8.35;;;;;;;29.05;54.16;100567.47;1463097;97;21279;-47
2021/07/21 02:44:21;;;;;;;8.80;8.00;;;;;;;29.03;54.21;100572.14;1464338;96;21665;-47
2021/07/21 02:46:50;;;;;;;10.28;9.15;;;;;;;29.02;54.19;100567.80;1464486;97;21081;-50
2021/07/21 02:49:21;;;;;;;11.75;8.48;;;;;;;29.02;54.29;100569.14;1465187;96;21100;-48
2021/07/21 02:51:54;;;;;;;9.78;8.98;;;;;;;29.01;54.35;100572.31;1482053;95;21177;-46
2021/07/21 02:54:39;;;;;;;9.58;8.63;;;;;;;29.00;54.32;100573.81;1484994;96;21606;-48
2021/07/21 02:57:31;;;;;;;11.65;9.00;;;;;;;28.97;54.10;100575.77;1438695;98;21098;-50
2021/07/21 03:00:13;;;;;;;13.15;8.48;;;;;;;28.94;53.69;100574.77;1387111;100;21205;-53
2021/07/21 03:02:41;;;;;;;12.35;9.48;;;;;;;28.92;53.43;100569.20;1417563;100;21683;-48
2021/07/21 03:05:11;;;;;;;10.63;8.98;;;;;;;28.90;53.41;100568.03;1427264;100;21164;-49
2021/07/21 03:07:49;;;;;;;8.90;8.10;;;;;;;28.89;53.52;100569.53;1413122;99;21184;-49
2021/07/21 03:10:18;;;;;;;10.38;9.38;;;;;;;28.86;53.68;100573.36;1419930;100;21584;-49
2021/07/21 03:12:57;;;;;;;10.15;9.18;;;;;;;28.85;53.87;100574.34;1416360;99;21685;-46
2021/07/21 03:15:29;;;;;;;11.00;9.00;;;;;;;28.83;54.03;100581.69;1439293;98;21628;-47
2021/07/21 03:17:58;;;;;;;21.73;10.58;;;;;;;28.81;54.27;100578.32;1441141;97;21164;-49
2021/07/21 03:20:25;;;;;;;10.10;9.20;;;;;;;28.80;54.44;100586.03;1437459;99;21131;-52
2021/07/21 03:22:55;;;;;;;17.17;13.18;;;;;;;28.79;54.57;100597.72;1463469;96;21624;-48
2021/07/21 03:25:22;;;;;;;20.48;14.60;;;;;;;28.76;54.54;100596.70;1459959;98;21128;-47
2021/07/21 03:27:51;;;;;;;26.35;16.32;;;;;;;28.75;54.25;100599.02;1457552;98;21099;-49
2021/07/21 03:30:26;;;;;;;21.55;14.50;;;;;;;28.75;54.09;100591.48;1464727;97;21115;-49
2021/07/21 03:32:55;;;;;;;20.52;13.48;;;;;;;28.74;53.74;100593.34;1464379;97;21583;-46
2021/07/21 03:35:28;;;;;;;18.90;13.60;;;;;;;28.69;53.83;100598.30;1487802;96;21190;-49
2021/07/21 03:37:56;;;;;;;20.52;15.58;;;;;;;28.67;53.95;100599.44;1557204;91;21074;-50
2021/07/21 03:40:25;;;;;;;23.38;14.75;;;;;;;28.70;53.91;100602.67;1558419;91;21109;-50
2021/07/21 03:42:57;;;;;;;18.30;14.95;;;;;;;28.75;53.86;100607.05;1513991;94;21099;-51
2021/07/21 03:45:28;;;;;;;18.57;14.63;;;;;;;28.86;53.57;100616.20;1528586;92;21128;-48
2021/07/21 03:47:56;;;;;;;18.67;15.23;;;;;;;29.02;53.16;100612.00;1544672;91;21088;-48
2021/07/21 03:50:25;;;;;;;19.73;15.00;;;;;;;29.24;52.84;100615.55;1528234;91;21220;-51
2021/07/21 03:52:53;;;;;;;23.62;15.13;;;;;;;29.55;52.15;100618.12;1516922;93;21184;-52
2021/07/21 03:55:25;;;;;;;14.93;12.95;;;;;;;29.87;51.34;100618.83;1568361;90;21226;-48
2021/07/21 03:58:11;;;;;;;14.87;11.95;;;;;;;30.10;50.62;100619.45;1563279;91;21046;-48
2021/07/21 04:00:46;;;;;;;17.00;11.55;;;;;;;30.26;50.05;100618.16;1536012;92;21127;-47
2021/07/21 04:03:15;;;;;;;13.08;11.38;;;;;;;30.34;49.81;100622.25;1459627;96;21135;-52
2021/07/21 04:05:46;;;;;;;13.25;10.82;;;;;;;30.37;49.52;100629.99;1488985;94;21195;-48
2021/07/21 04:08:15;;;;;;;11.48;10.38;;;;;;;30.35;49.39;100627.97;1507441;94;21081;-47
2021/07/21 04:10:42;;;;;;;12.05;10.53;;;;;;;30.33;49.36;100631.33;1500516;95;21106;-50
2021/07/21 04:13:10;;;;;;;11.73;10.40;;;;;;;30.25;49.39;100628.55;1514180;94;21096;-49
2021/07/21 04:15:48;;;;;;;15.70;11.20;;;;;;;30.16;49.70;100631.38;1518926;94;21642;-50
2021/07/21 04:18:15;;;;;;;14.55;10.23;;;;;;;30.04;50.05;100629.98;1514870;94;21083;-46
2021/07/21 04:20:43;;;;;;;13.08;10.68;;;;;;;29.96;50.37;100630.80;1520557;94;21149;-48
2021/07/21 04:23:13;;;;;;;17.92;11.33;;;;;;;29.88;50.64;100633.44;1525418;94;21146;-50
2021/07/21 04:25:40;;;;;;;14.53;11.45;;;;;;;29.81;50.84;100629.70;1514709;94;21122;-47
2021/07/21 04:28:07;;;;;;;11.53;10.35;;;;;;;29.75;51.14;100627.66;1525780;94;21093;-48
2021/07/21 04:30:36;;;;;;;19.12;10.40;;;;;;;29.71;51.18;100628.45;1507118;94;21110;-47
2021/07/21 04:33:06;;;;;;;14.80;12.30;;;;;;;29.65;51.34;100632.27;1518084;94;21107;-50
2021/07/21 04:35:33;;;;;;;12.60;11.30;;;;;;;29.61;51.57;100635.73;1520289;94;21594;-49
2021/07/21 04:38:02;;;;;;;14.30;11.20;;;;;;;29.60;51.77;100631.88;1522939;94;21109;-47
2021/07/21 04:40:46;;;;;;;14.47;11.80;;;;;;;29.55;51.85;100629.67;1543920;90;21180;-48
2021/07/21 04:43:34;;;;;;;13.43;11.28;;;;;;;29.52;52.08;100639.88;1539237;92;21073;-47
2021/07/21 04:46:02;;;;;;;12.85;11.25;;;;;;;29.48;52.09;100642.53;1546979;91;21091;-49
2021/07/21 04:48:30;;;;;;;20.95;12.23;;;;;;;29.45;52.34;100634.81;1511055;92;21121;-51
2021/07/21 04:50:59;;;;;;;15.65;12.07;;;;;;;29.44;52.56;100641.16;1522831;94;21115;-48
2021/07/21 04:53:27;;;;;;;16.65;12.35;;;;;;;29.44;52.74;100643.84;1500087;94;21124;-49
2021/07/21 04:55:54;;;;;;;15.50;12.60;;;;;;;29.43;52.65;100648.88;1502537;93;21666;-46
2021/07/21 04:58:22;;;;;;;15.28;12.53;;;;;;;29.44;52.51;100639.82;1548851;91;21157;-51
2021/07/21 05:00:53;;;;;;;14.87;13.28;;;;;;;29.46;52.78;100645.87;1552353;90;21077;-48
2021/07/21 05:03:20;;;;;;;17.30;14.63;;;;;;;29.49;52.83;100648.25;1569921;91;21159;-52
2021/07/21 05:05:52;;;;;;;20.70;15.05;;;;;;;29.51;52.90;100649.75;1543880;91;21125;-48
2021/07/21 05:08:21;;;;;;;16.42;14.73;;;;;;;29.52;52.71;100646.58;1548575;90;21143;-48
2021/07/21 05:10:56;;;;;;;17.02;14.10;;;;;;;29.52;52.77;100645.23;1553791;91;21188;-50
2021/07/21 05:13:23;;;;;;;20.70;15.25;;;;;;;29.54;52.80;100648.60;1520135;91;21131;-49
2021/07/21 05:15:51;;;;;;;19.48;16.32;;;;;;;29.55;52.93;100652.98;1562917;88;21089;-46
2021/07/21 05:18:19;;;;;;;18.65;16.75;;;;;;;29.58;52.94;100651.31;1616904;88;21069;-49
2021/07/21 05:20:48;;;;;;;20.00;18.00;;;;;;;29.61;52.67;100648.33;1610359;88;21516;-46
2021/07/21 05:23:17;;;;;;;20.80;17.62;;;;;;;29.66;52.57;100650.02;1591822;89;21584;-49
2021/07/21 05:25:46;;;;;;;20.00;18.00;;;;;;;29.69;52.68;100644.36;1587392;89;21049;-50
2021/07/21 05:28:27;;;;;;;19.23;17.17;;;;;;;29.71;52.42;100651.25;1578023;89;21108;-46
2021/07/21 05:30:56;;;;;;;18.62;16.85;;;;;;;29.71;52.28;100649.91;1592510;89;21081;-48
2021/07/21 05:33:24;;;;;;;19.82;17.77;;;;;;;29.71;52.24;100655.77;1595874;89;21521;-51
2021/07/21 05:35:51;;;;;;;23.98;19.62;;;;;;;29.67;52.30;100657.08;1594737;89;21060;-52
2021/07/21 05:38:20;;;;;;;25.72;19.45;;;;;;;29.66;52.36;100663.43;1596589;88;21159;-50
2021/07/21 05:40:48;;;;;;;23.50;18.82;;;;;;;29.64;52.29;100664.09;1611400;87;21078;-49
2021/07/21 05:43:29;;;;;;;31.15;20.15;;;;;;;29.57;52.25;100663.87;1596372;87;21069;-49
2021/07/21 05:45:57;;;;;;;18.82;16.85;;;;;;;29.51;52.29;100667.70;1598705;88;21565;-50
2021/07/21 05:48:26;;;;;;;21.57;16.48;;;;;;;29.44;52.36;100667.97;1599345;88;21080;-51
2021/07/21 05:51:00;;;;;;;16.80;14.63;;;;;;;29.38;52.46;100676.64;1568859;89;21090;-53
2021/07/21 05:53:27;;;;;;;22.75;15.38;;;;;;;29.31;52.56;100671.05;1570006;89;21579;-48
2021/07/21 05:55:55;;;;;;;17.20;14.10;;;;;;;29.29;52.74;100671.70;1575457;89;21068;-52
2021/07/21 05:58:23;;;;;;;14.53;13.08;;;;;;;29.30;52.60;100668.53;1567891;90;21561;-50
2021/07/21 06:00:50;;;;;;;13.45;12.05;;;;;;;29.32;52.58;100670.56;1578905;89;21615;-49
2021/07/21 06:03:21;;;;;;;12.98;11.48;;;;;;;29.35;52.50;100672.91;1580526;90;21228;-49
2021/07/21 06:06:08;;;;;;;15.72;11.60;;;;;;;29.42;52.23;100679.35;1591247;90;21073;-47
2021/07/21 06:08:54;;;;;;;13.18;11.80;;;;;;;29.49;52.03;100679.08;1574385;90;21042;-49
2021/07/21 06:11:22;;;;;;;21.45;12.68;;;;;;;29.55;52.02;100682.48;1590097;89;21623;-48
2021/07/21 06:13:50;;;;;;;201.32;25.10;;;;;;;29.63;51.76;100684.72;1578222;89;21062;-47
2021/07/21 06:16:19;;;;;;;34.08;12.53;;;;;;;29.70;51.43;100676.86;1580309;89;21060;-49
2021/07/21 06:18:47;;;;;;;11.57;10.30;;;;;;;29.73;50.96;100690.86;1587531;89;21093;-51
2021/07/21 06:21:14;;;;;;;14.73;10.32;;;;;;;29.71;50.72;100685.27;1584395;89;21285;-53
2021/07/21 06:23:43;;;;;;;12.33;11.10;;;;;;;29.68;50.61;100685.56;1581822;89;21053;-53
2021/07/21 06:26:10;;;;;;;13.98;10.20;;;;;;;29.64;50.75;100683.70;1582778;89;21631;-50
2021/07/21 06:28:57;;;;;;;26.40;11.20;;;;;;;29.61;50.92;100680.51;1610321;88;21100;-49
2021/07/21 06:31:26;;;;;;;14.65;10.25;;;;;;;29.57;51.09;100681.82;1640678;86;21138;-48
2021/07/21 06:33:53;;;;;;;15.32;11.05;;;;;;;29.58;51.32;100684.83;1617151;88;21034;-49
2021/07/21 06:36:20;;;;;;;11.78;9.48;;;;;;;29.61;51.17;100679.17;1631327;87;21534;-47
2021/07/21 06:38:49;;;;;;;12.93;10.28;;;;;;;29.65;50.78;100685.90;1636911;86;21096;-49
2021/07/21 06:41:18;;;;;;;14.20;10.25;;;;;;;29.69;50.59;100688.11;1578455;89;21783;-48
2021/07/21 06:43:48;;;;;;;17.00;10.13;;;;;;;29.75;50.51;100683.98;1572234;90;21209;-49
2021/07/21 06:46:16;;;;;;;41.47;12.40;;;;;;;29.77;50.14;100681.98;1573234;90;21097;-49
2021/07/21 06:48:47;;;;;;;15.32;12.10;;;;;;;29.80;49.99;100689.70;1576746;89;21464;-49
2021/07/21 06:51:14;;;;;;;21.95;14.28;;;;;;;29.82;49.82;100695.75;1562147;90;21099;-50
2021/07/21 06:53:41;;;;;;;18.27;11.33;;;;;;;29.81;49.50;100701.28;1575087;90;21117;-49
2021/07/21 06:56:14;;;;;;;18.80;10.50;;;;;;;29.78;49.22;100703.77;1580343;90;21103;-49
2021/07/21 06:58:45;;;;;;;18.42;10.25;;;;;;;29.76;49.42;100703.61;1586673;89;21174;-50
2021/07/21 07:01:14;;;;;;;10.90;9.55;;;;;;;29.71;49.41;100698.67;1591488;89;21104;-50
2021/07/21 07:03:43;;;;;;;13.48;9.90;;;;;;;29.63;49.25;100706.67;1596198;89;21066;-50
2021/07/21 07:06:28;;;;;;;22.17;9.40;;;;;;;29.60;49.09;100707.81;1598137;89;21086;-50
2021/07/21 07:09:14;;;;;;;12.33;8.90;;;;;;;29.56;49.21;100705.59;1550031;91;21090;-50
2021/07/21 07:11:50;;;;;;;9.68;8.75;;;;;;;29.53;49.25;100701.37;1588468;89;21129;-51
2021/07/21 07:14:19;;;;;;;14.38;8.45;;;;;;;29.50;49.51;100711.58;1568626;91;21045;-48
2021/07/21 07:16:47;;;;;;;9.50;8.43;;;;;;;29.51;49.42;100708.73;1567392;91;21070;-49
2021/07/21 07:19:15;;;;;;;14.55;8.10;;;;;;;29.54;49.55;100705.77;1603833;88;21145;-48
2021/07/21 07:21:42;;;;;;;14.38;7.70;;;;;;;29.58;49.65;100711.64;1617711;87;21599;-55
2021/07/21 07:24:09;;;;;;;21.20;7.70;;;;;;;29.61;49.25;100714.84;1612407;88;21009;-49
2021/07/21 07:26:36;;;;;;;15.55;7.65;;;;;;;29.67;48.89;100706.70;1641280;87;21529;-50
2021/07/21 07:29:04;;;;;;;9.15;6.78;;;;;;;29.70;48.85;100713.07;1641170;87;20985;-49
2021/07/21 07:31:32;;;;;;;8.18;6.53;;;;;;;29.74;48.62;100703.74;1642300;87;21081;-51
2021/07/21 07:33:59;;;;;;;11.15;7.12;;;;;;;29.76;48.63;100707.11;1643159;87;21069;-50
2021/07/21 07:36:26;;;;;;;11.03;6.83;;;;;;;29.82;48.63;100705.66;1643660;87;21068;-47
2021/07/21 07:38:53;;;;;;;7.03;6.30;;;;;;;29.85;48.56;100711.55;1641688;87;21017;-47
2021/07/21 07:41:22;;;;;;;10.05;5.65;;;;;;;29.90;48.25;100706.56;1638651;85;21088;-49
2021/07/21 07:43:51;;;;;;;6.83;6.08;;;;;;;29.95;48.13;100703.38;1639891;87;21087;-50
2021/07/21 07:46:19;;;;;;;7.42;5.90;;;;;;;29.95;48.17;100710.94;1642284;87;21035;-49
2021/07/21 07:48:46;;;;;;;8.70;5.70;;;;;;;29.98;47.99;100711.13;1641816;87;21103;-48
2021/07/21 07:51:13;;;;;;;8.20;6.42;;;;;;;29.97;47.55;100715.64;1638452;86;21602;-50
2021/07/21 07:53:41;;;;;;;17.87;7.33;;;;;;;29.98;47.53;100716.00;1639913;87;21540;-49
2021/07/21 07:56:08;;;;;;;10.03;6.22;;;;;;;30.00;47.76;100714.48;1638577;86;21032;-47
2021/07/21 07:58:36;;;;;;;17.02;7.03;;;;;;;29.99;47.64;100716.32;1637274;87;21055;-49
2021/07/21 08:01:03;;;;;;;12.10;7.22;;;;;;;29.99;47.13;100717.66;1638455;86;21067;-49
2021/07/21 08:03:31;;;;;;;19.20;6.35;;;;;;;29.96;47.25;100719.83;1639441;87;21582;-48
2021/07/21 08:05:59;;;;;;;12.63;6.12;;;;;;;29.95;47.23;100714.95;1642378;87;21083;-48
2021/07/21 08:08:27;;;;;;;20.35;6.72;;;;;;;29.94;46.99;100725.36;1636148;87;21313;-48
2021/07/21 08:10:54;;;;;;;11.25;5.78;;;;;;;29.91;46.89;100729.69;1628800;87;21512;-49
2021/07/21 08:13:22;;;;;;;19.35;6.25;;;;;;;29.88;46.78;100730.02;1639785;86;21083;-49
2021/07/21 08:15:51;;;;;;;12.18;5.92;;;;;;;29.81;46.94;100731.64;1642449;87;21115;-47
2021/07/21 08:18:18;;;;;;;14.68;6.53;;;;;;;29.78;47.14;100733.80;1639973;87;21519;-48
2021/07/21 08:20:45;;;;;;;17.50;6.08;;;;;;;29.73;46.96;100738.28;1638717;87;21099;-49
2021/07/21 08:23:12;;;;;;;7.42;5.50;;;;;;;29.67;46.92;100736.20;1639120;86;21083;-50
2021/07/21 08:25:39;;;;;;;7.78;5.95;;;;;;;29.64;46.83;100737.83;1641287;86;21079;-50
2021/07/21 08:28:06;;;;;;;11.30;6.30;;;;;;;29.60;46.81;100733.78;1641391;87;21087;-48
2021/07/21 08:30:33;;;;;;;9.93;6.08;;;;;;;29.58;46.72;100751.87;1638579;86;21087;-49
2021/07/21 08:33:02;;;;;;;12.15;6.80;;;;;;;29.54;46.43;100750.00;1634901;87;21131;-49
2021/07/21 08:35:30;;;;;;;6.33;5.72;;;;;;;29.48;46.48;100745.75;1635091;87;21547;-48
2021/07/21 08:37:58;;;;;;;6.97;5.65;;;;;;;29.44;46.53;100752.42;1637118;87;21091;-46
2021/07/21 08:40:27;;;;;;;8.15;5.17;;;;;;;29.41;46.71;100747.35;1637222;87;21103;-49
2021/07/21 08:42:55;;;;;;;6.15;5.08;;;;;;;29.38;46.85;100750.36;1639614;86;21546;-47
2021/07/21 08:45:22;;;;;;;32.98;11.48;;;;;;;29.33;46.90;100758.00;1641520;86;21509;-49
2021/07/21 08:47:49;;;;;;;7.12;5.95;;;;;;;29.30;46.84;100758.33;1639922;87;21017;-49
2021/07/21 08:50:16;;;;;;;11.75;5.25;;;;;;;29.28;46.80;100758.48;1617214;88;21092;-49
2021/07/21 08:52:43;;;;;;;10.25;4.72;;;;;;;29.26;46.77;100756.95;1617486;88;21038;-48
2021/07/21 08:55:12;;;;;;;6.75;4.53;;;;;;;29.26;46.94;100757.80;1639055;87;21114;-48
2021/07/21 08:57:39;;;;;;;11.55;5.28;;;;;;;29.26;46.65;100751.58;1640408;86;21580;-48
2021/07/21 09:00:11;;;;;;;5.90;4.58;;;;;;;29.29;46.87;100756.63;1640013;87;21040;-49
2021/07/21 09:02:38;;;;;;;9.73;4.75;;;;;;;29.29;47.15;100753.94;1637054;87;21524;-48
2021/07/21 09:05:07;;;;;;;16.57;4.65;;;;;;;29.35;47.10;100758.69;1639094;86;21008;-51
2021/07/21 09:07:37;;;;;;;9.90;5.25;;;;;;;29.39;47.12;100754.70;1624618;86;21619;-50
2021/07/21 09:10:11;;;;;;;14.73;5.12;;;;;;;29.44;46.83;100756.44;1620274;87;21118;-48
2021/07/21 09:12:42;;;;;;;16.80;5.05;;;;;;;29.50;46.34;100762.52;1619789;87;21033;-48
2021/07/21 09:15:12;;;;;;;9.93;4.42;;;;;;;29.55;45.97;100754.34;1617707;88;21196;-53
2021/07/21 09:18:10;;;;;;;6.35;4.65;;;;;;;29.55;45.82;100749.52;1619656;87;21045;-51
2021/07/21 09:20:40;;;;;;;15.20;4.72;;;;;;;29.53;45.50;100756.87;1619946;87;21525;-50
2021/07/21 09:23:07;;;;;;;7.12;5.83;;;;;;;29.52;45.73;100756.51;1617553;88;21045;-52
2021/07/21 09:25:38;;;;;;;11.05;5.15;;;;;;;29.54;45.81;100753.17;1618356;88;21053;-48
2021/07/21 09:28:07;;;;;;;57.73;7.08;;;;;;;29.55;45.89;100752.19;1617738;87;21128;-48
2021/07/21 09:30:39;;;;;;;8.78;4.30;;;;;;;29.58;45.80;100757.23;1616238;88;21045;-47
2021/07/21 09:33:17;;;;;;;7.20;4.55;;;;;;;29.61;45.78;100748.89;1556737;90;21123;-49
2021/07/21 09:35:49;;;;;;;8.93;3.83;;;;;;;29.63;45.61;100746.41;1531551;93;21121;-49
2021/07/21 09:38:20;;;;;;;7.80;5.42;;;;;;;29.68;45.70;100747.25;1561469;90;21051;-48
2021/07/21 09:40:49;;;;;;;;;;;;;;;29.68;45.46;100752.61;1520308;92;21217;-49
2021/07/21 09:43:24;;;;;;;7.55;4.25;;;;;;;29.66;44.95;100752.78;1509575;90;20164;-48
2021/07/21 09:45:51;;;;;;;7.47;3.90;;;;;;;29.66;45.28;100738.52;1455597;97;21794;-49
2021/07/21 09:48:20;;;;;;;11.53;4.10;;;;;;;29.69;45.64;100735.55;1465914;97;21135;-51
2021/07/21 09:50:48;;;;;;;3.42;3.12;;;;;;;29.72;45.62;100741.91;1488362;96;21082;-48
2021/07/21 09:53:17;;;;;;;5.58;3.55;;;;;;;29.78;45.40;100739.16;1486707;95;22494;-49
2021/07/21 09:55:46;;;;;;;7.35;3.98;;;;;;;29.82;45.21;100742.69;1463335;97;21699;-48
2021/07/21 09:58:23;;;;;;;3.85;2.98;;;;;;;29.88;44.92;100743.44;1465410;97;21095;-51
2021/07/21 10:00:49;;;;;;;4.85;4.10;;;;;;;29.89;44.87;100737.05;1486491;95;21095;-47
2021/07/21 10:03:27;;;;;;;3.67;3.35;;;;;;;29.91;45.38;100748.47;1487134;95;21546;-49
2021/07/21 10:06:08;;;;;;;3.27;2.75;;;;;;;29.95;44.84;100740.94;1455449;97;21169;-49
2021/07/21 10:08:48;;;;;;;6.78;3.20;;;;;;;29.98;44.78;100748.69;1484014;95;21633;-49
2021/07/21 10:11:33;;;;;;;5.15;2.85;;;;;;;30.01;44.26;100749.20;1466579;96;21141;-49
2021/07/21 10:14:08;;;;;;;9.65;2.65;;;;;;;29.98;44.05;100742.83;1476185;96;21083;-52
2021/07/21 10:16:44;;;;;;;7.67;2.70;;;;;;;29.99;44.16;100738.28;1476931;96;21137;-48
2021/07/21 10:19:24;;;;;;;15.68;9.95;;;;;;;29.99;44.12;100740.96;1468873;96;21176;-51
2021/07/21 10:21:58;;;;;;;6.25;3.87;;;;;;;29.98;44.32;100744.17;1405391;99;21114;-50
2021/07/21 10:24:29;;;;;;;5.17;3.25;;;;;;;29.99;44.40;100736.45;1410571;100;21110;-49
2021/07/21 10:26:56;;;;;;;4.87;2.50;;;;;;;30.05;44.26;100742.52;1425311;100;21195;-52
2021/07/21 10:29:24;;;;;;;4.90;2.50;;;;;;;30.11;44.18;100742.41;1444097;95;21633;-50
2021/07/21 10:31:51;;;;;;;12.33;2.72;;;;;;;30.13;44.34;100743.09;1485204;96;21090;-46
2021/07/21 10:34:20;;;;;;;8.18;2.85;;;;;;;30.16;43.88;100736.89;1465229;97;21179;-50
2021/07/21 10:36:46;;;;;;;4.83;2.42;;;;;;;30.18;43.99;100738.07;1460254;95;21202;-50
2021/07/21 10:39:17;;;;;;;7.90;2.62;;;;;;;30.19;43.71;100736.56;1509170;94;21144;-47
2021/07/21 10:41:46;;;;;;;7.73;2.40;;;;;;;30.21;43.79;100733.22;1511152;93;21118;-52
2021/07/21 10:44:15;;;;;;;13.38;2.80;;;;;;;30.25;43.25;100731.08;1513430;94;21084;-47
2021/07/21 10:46:52;;;;;;;5.37;3.02;;;;;;;30.28;43.20;100738.30;1512376;93;21078;-48
2021/07/21 10:49:36;;;;;;;7.08;2.60;;;;;;;30.26;43.43;100734.94;1501687;94;21073;-48
2021/07/21 11:00:28;;;;;;;7.70;2.20;;;;;;;30.28;42.51;100718.16;1480098;96;21069;-50
2021/07/21 11:03:23;;;;;;;7.62;2.60;;;;;;;30.29;42.52;100726.61;1440552;99;21148;-49
2021/07/21 11:06:07;;;;;;;9.63;3.60;;;;;;;30.29;42.55;100731.09;1416358;100;21600;-50
2021/07/21 11:08:47;;;;;;;8.25;3.30;;;;;;;30.33;42.88;100729.80;1454999;97;21133;-52
2021/07/21 11:11:19;;;;;;;11.50;3.25;;;;;;;30.35;42.45;100739.39;1454831;97;21120;-50
2021/07/21 11:13:58;;;;;;;16.30;3.62;;;;;;;30.33;41.94;100738.70;1431850;99;21137;-51
2021/07/21 11:16:39;;;;;;;11.75;4.03;;;;;;;30.29;41.56;100731.98;1458633;97;21127;-49
2021/07/21 11:19:47;;;;;;;14.20;4.50;;;;;;;30.26;41.87;100726.03;1372556;104;21169;-51
2021/07/21 11:22:26;;;;;;;12.07;3.90;;;;;;;30.27;42.06;100735.78;1338977;107;21188;-49
2021/07/21 11:25:06;;;;;;;11.97;3.58;;;;;;;30.24;41.77;100731.56;1339823;105;21189;-51
2021/07/21 11:27:52;;;;;;;10.55;3.37;;;;;;;30.22;41.79;100728.20;1340073;107;21640;-48
2021/07/21 11:30:41;;;;;;;10.80;2.72;;;;;;;30.22;41.86;100745.65;1297339;107;21121;-50
2021/07/21 11:33:49;;;;;;;8.20;2.83;;;;;;;30.22;41.51;100732.23;1336617;106;21260;-49
2021/07/21 11:42:35;;;;;;;8.35;2.75;;;;;;;30.28;41.60;100736.95;1411964;100;21663;-49
2021/07/21 11:45:12;;;;;;;4.47;3.95;;;;;;;30.28;41.71;100728.91;1415013;101;21104;-55
2021/07/21 11:47:48;;;;;;;15.68;3.40;;;;;;;30.28;41.75;100727.56;1413593;101;21181;-47
2021/07/21 11:50:18;;;;;;;8.88;2.80;;;;;;;30.28;41.37;100730.25;1402680;101;21213;-46
2021/07/21 11:52:52;;;;;;;3.80;2.70;;;;;;;30.26;41.45;100733.59;1411923;100;21194;-47
2021/07/21 11:55:23;;;;;;;10.68;2.90;;;;;;;30.24;41.28;100726.20;1431747;100;21135;-47
2021/07/21 11:57:52;;;;;;;16.48;3.33;;;;;;;30.20;41.53;100738.26;1412428;100;21117;-47